Boca Raton, FL

3:06 AM EST on December 25, 2014 (GMT -0500)
Boca Surf Cam . Com | Change Station
CLOSE
Current Station
Personal Weather Station
Location: Boca Raton, FL
Elevation: 26 ft
Nearby Weather Stations

Elev 26 ft 26.35 °N, 80.07 °W | Updated 3 minutes ago

Thunderstorm
Thunderstorm
74.7 °F
Feels Like 75 °F
N
10.9
Wind Variable Wind from SW

Today
High -- | Low -- °F
--% Chance of Precip.
Yesterday
High -- | Low -- °F
Precip. -- in
7:05 AM 5:35 PM
Waxing Crescent, 14% visible
Pressure 30.00 in
Visibility 7.0 miles
Clouds Scattered Clouds 1700 ft
Mostly Cloudy 2700 ft
Mostly Cloudy 3600 ft
Heat Index 75 °F
Dew Point 68 °F
Humidity 81%
Rainfall 0.04 in
Snow Depth Not available.
UV 0 out of 12
Pollen 3.90 out of 12
Air Quality Not available.
Flu Activity Not available.
SPECI KPMP 250801Z AUTO 26015G22KT 7SM -RA SCT017 BKN027 BKN036 24/22 A3000 RMK AO2 LTG DSNT N P0001 T02440222

More Conditions Fewer Conditions

Pressure 30.00 in
Visibility 7.0 miles
Clouds Scattered Clouds 1700 ft
Mostly Cloudy 2700 ft
Mostly Cloudy 3600 ft
Heat Index 75 °F
Dew Point 68 °F
Humidity 81%
Rainfall 0.04 in
Snow Depth Not available.
UV 0 out of 12
Pollen 3.90 out of 12
Air Quality Not available.
Flu Activity Not available.
SPECI KPMP 250801Z AUTO 26015G22KT 7SM -RA SCT017 BKN027 BKN036 24/22 A3000 RMK AO2 LTG DSNT N P0001 T02440222

More Conditions Fewer Conditions

Nowcast | as of 1:40 am EST on December 25, 2014

A line of showers and embedded thunderstorms over the interior areas of South Florida will continue to move east northeast around 25 mph into the Metro areas of Palm Beach and Broward counties through early this morning. Any storms that do move through the area will be capable of producing wind gusts up to 35 mph...lightning strikes...and locally heavy rainfall. If you see lightning or hear thunder move inside until the storms have passed by.

×

10-Day Weather Forecast

Almanac

Astronomy

Dec. 25, 2014 Rise Set
Actual Time
Civil Twilight
Nautical Twilight
Astronomical Twilight
Moon
Length of Visible Light
Length of Day
Tomorrow will be .
, % of the Moon is Illuminated

Today's Extremes

State Highs State Lows

Community

WunderPhotos

Upload Photos

1,780,250 photos uploaded!

WunderBlogs® & News

Nearby

Air Quality

  Air Quality AQ Index Pollutant
Not available.

Snow Depth

Station Depth Elevation

Earthquake Activity

City Distance Mag. Time & Date
Minimum magnitude displayed is 2.5.

Coastal Water Temperatures

Place Temperature

Nearby Weather Stations